createdAt,value
2019-03-13T00:01:27.022Z,8.90
2019-03-13T00:03:56.455Z,8.90
2019-03-13T00:06:25.877Z,8.90
2019-03-13T00:08:55.255Z,8.80
2019-03-13T00:11:25.135Z,8.80
2019-03-13T00:13:54.508Z,8.80
2019-03-13T00:16:24.284Z,8.80
2019-03-13T00:18:53.647Z,8.80
2019-03-13T00:21:23.016Z,8.80
2019-03-13T00:23:52.403Z,8.80
2019-03-13T00:26:21.786Z,8.80
2019-03-13T00:28:52.295Z,8.80
2019-03-13T00:31:21.752Z,8.70
2019-03-13T00:33:51.120Z,8.70
2019-03-13T00:36:20.469Z,8.70
2019-03-13T00:38:49.882Z,8.70
2019-03-13T00:41:19.263Z,8.70
2019-03-13T00:43:48.721Z,8.70
2019-03-13T00:46:18.092Z,8.70
2019-03-13T00:48:47.453Z,8.60
2019-03-13T00:51:16.814Z,8.60
2019-03-13T00:53:46.196Z,8.60
2019-03-13T00:56:15.569Z,8.60
2019-03-13T00:58:44.910Z,8.60
2019-03-13T01:01:34.872Z,8.60
2019-03-13T01:04:05.864Z,8.60
2019-03-13T01:06:36.857Z,8.60
2019-03-13T01:09:07.888Z,8.60
2019-03-13T01:11:37.243Z,8.60
2019-03-13T01:14:10.751Z,8.60
2019-03-13T01:16:40.507Z,8.60
2019-03-13T01:19:09.872Z,8.60
2019-03-13T01:21:39.271Z,8.50
2019-03-13T01:24:08.649Z,8.50
2019-03-13T01:26:38.022Z,8.50
2019-03-13T01:29:07.389Z,8.50
2019-03-13T01:31:39.620Z,8.50
2019-03-13T01:34:22.200Z,8.50
2019-03-13T01:36:51.673Z,8.50
2019-03-13T01:39:21.034Z,8.50
2019-03-13T01:41:50.398Z,8.50
2019-03-13T01:44:19.795Z,8.50
2019-03-13T01:46:49.167Z,8.50
2019-03-13T01:49:18.519Z,8.50
2019-03-13T01:51:47.909Z,8.40
2019-03-13T02:14:59.468Z,5.70
2019-03-13T02:17:28.835Z,6.00
2019-03-13T02:19:58.179Z,6.30
2019-03-13T02:22:27.548Z,6.60
2019-03-13T02:24:56.919Z,6.90
2019-03-13T02:27:26.274Z,7.10
2019-03-13T02:29:55.678Z,7.20
2019-03-13T02:32:26.216Z,7.40
2019-03-13T02:34:55.564Z,7.50
2019-03-13T02:37:27.904Z,7.60
2019-03-13T02:39:57.330Z,7.70
2019-03-13T02:42:26.703Z,7.80
2019-03-13T02:44:56.048Z,7.90
2019-03-13T02:47:25.967Z,8.00
2019-03-13T02:49:55.331Z,8.00
2019-03-13T02:52:25.382Z,8.00
2019-03-13T02:54:54.730Z,8.10
2019-03-13T02:57:24.922Z,8.10
2019-03-13T02:59:54.653Z,8.20
2019-03-13T03:02:34.419Z,8.20
2019-03-13T03:05:06.026Z,8.20
2019-03-13T03:07:35.386Z,8.20
2019-03-13T03:10:10.455Z,8.20
2019-03-13T03:12:40.490Z,8.30
2019-03-13T03:15:16.765Z,8.30
2019-03-13T03:17:46.113Z,8.30
2019-03-13T03:20:21.450Z,8.30
2019-03-13T03:22:50.803Z,8.30
2019-03-13T03:25:20.148Z,8.40
2019-03-13T03:27:49.518Z,8.40
2019-03-13T03:30:24.075Z,8.40
2019-03-13T03:32:54.235Z,8.40
2019-03-13T03:35:23.708Z,8.40
2019-03-13T03:37:56.003Z,8.40
2019-03-13T03:40:25.420Z,8.40
2019-03-13T03:42:54.795Z,8.40
2019-03-13T03:45:24.150Z,8.50
2019-03-13T03:47:53.503Z,8.50
2019-03-13T03:50:22.906Z,8.50
2019-03-13T03:52:52.258Z,8.50
2019-03-13T03:55:21.628Z,8.40
2019-03-13T03:57:51.549Z,8.40
2019-03-13T04:00:21.275Z,8.40
2019-03-13T04:02:50.626Z,8.40
2019-03-13T04:05:20.911Z,8.40
2019-03-13T04:07:50.225Z,8.40
2019-03-13T04:10:19.579Z,8.40
2019-03-13T04:12:48.939Z,8.40
2019-03-13T04:15:18.380Z,8.40
2019-03-13T04:17:47.721Z,8.40
2019-03-13T04:20:19.240Z,8.40
2019-03-13T04:22:50.118Z,8.40
2019-03-13T04:25:31.554Z,8.50
2019-03-13T04:28:01.194Z,8.40
2019-03-13T04:30:30.547Z,8.40
2019-03-13T04:32:59.922Z,8.40
2019-03-13T04:35:29.565Z,8.40
2019-03-13T04:37:59.484Z,8.40
2019-03-13T04:40:29.224Z,8.40
2019-03-13T04:43:00.113Z,8.40
2019-03-13T04:45:29.465Z,8.40
2019-03-13T04:48:00.196Z,8.40
2019-03-13T04:50:29.552Z,8.40
2019-03-13T04:52:58.912Z,8.40
2019-03-13T04:55:28.293Z,8.40
2019-03-13T04:57:57.654Z,8.40
2019-03-13T05:00:27.000Z,8.40
2019-03-13T05:02:56.383Z,8.40
2019-03-13T05:05:44.759Z,8.40
2019-03-13T05:08:28.093Z,8.40
2019-03-13T05:10:57.445Z,8.40
2019-03-13T05:13:26.789Z,8.40
2019-03-13T05:15:56.162Z,8.40
2019-03-13T05:18:25.510Z,8.40
2019-03-13T05:20:54.876Z,8.40
2019-03-13T05:23:24.313Z,8.40
2019-03-13T05:25:53.673Z,8.40
2019-03-13T05:28:23.047Z,8.40
2019-03-13T05:30:53.263Z,8.40
2019-03-13T05:33:22.745Z,8.40
2019-03-13T05:35:52.752Z,8.40
2019-03-13T05:38:22.832Z,8.40
2019-03-13T05:40:52.201Z,8.40
2019-03-13T05:43:21.545Z,8.40
2019-03-13T05:45:50.990Z,8.40
2019-03-13T05:48:20.333Z,8.40
2019-03-13T05:50:51.993Z,8.40
2019-03-13T05:53:21.365Z,8.40
2019-03-13T05:55:50.718Z,8.40
2019-03-13T05:58:20.064Z,8.40
2019-03-13T06:00:49.448Z,8.40
2019-03-13T06:03:18.858Z,8.40
2019-03-13T06:05:48.270Z,8.40
2019-03-13T06:08:18.652Z,8.40
2019-03-13T06:10:48.080Z,8.40
2019-03-13T06:13:17.434Z,8.40
2019-03-13T06:15:46.805Z,8.40
2019-03-13T06:18:18.849Z,8.40
2019-03-13T06:20:48.214Z,8.40
2019-03-13T06:23:17.592Z,8.50
2019-03-13T06:25:47.515Z,8.50
2019-03-13T06:28:16.951Z,8.50
2019-03-13T06:30:47.131Z,8.50
2019-03-13T06:33:17.053Z,8.50
2019-03-13T06:35:46.463Z,8.50
2019-03-13T06:38:15.806Z,8.60
2019-03-13T06:40:45.755Z,8.60
2019-03-13T06:43:17.787Z,8.60
2019-03-13T06:45:47.156Z,8.60
2019-03-13T06:48:16.504Z,8.60
2019-03-13T06:50:45.906Z,8.60
2019-03-13T06:53:15.584Z,8.60
2019-03-13T06:55:49.128Z,8.60
2019-03-13T06:58:20.115Z,8.60
2019-03-13T07:01:03.430Z,8.60
2019-03-13T07:03:40.170Z,8.60
2019-03-13T07:06:16.673Z,8.60
2019-03-13T07:08:50.319Z,8.60
2019-03-13T07:11:23.852Z,8.60
2019-03-13T07:13:54.898Z,8.70
2019-03-13T07:16:28.842Z,8.70
2019-03-13T07:18:59.855Z,8.70
2019-03-13T07:21:30.842Z,8.70
2019-03-13T07:24:08.037Z,8.70
2019-03-13T07:26:39.036Z,8.80
2019-03-13T07:29:12.931Z,8.80
2019-03-13T07:32:00.846Z,8.80
2019-03-13T07:34:34.351Z,8.80
2019-03-13T07:37:14.437Z,8.80
2019-03-13T07:39:54.200Z,8.80
2019-03-13T07:42:34.654Z,8.80
2019-03-13T07:45:26.231Z,8.80
2019-03-13T07:48:16.959Z,8.80
2019-03-13T07:50:47.944Z,8.80
2019-03-13T07:53:24.930Z,8.80
2019-03-13T07:56:04.758Z,8.80
2019-03-13T07:58:51.857Z,8.90
2019-03-13T08:01:28.276Z,8.90
2019-03-13T08:04:05.082Z,8.90
2019-03-13T08:06:35.107Z,8.90
2019-03-13T08:09:08.221Z,8.90
2019-03-13T08:11:55.101Z,8.90
2019-03-13T08:14:44.099Z,8.90
2019-03-13T08:17:21.080Z,8.90
2019-03-13T08:20:08.088Z,8.90
2019-03-13T08:22:55.765Z,8.90
2019-03-13T08:25:29.848Z,8.90
2019-03-13T08:28:06.832Z,8.90
2019-03-13T08:30:50.092Z,9.00
2019-03-13T08:33:36.437Z,9.00
2019-03-13T08:36:07.432Z,9.00
2019-03-13T08:38:38.485Z,9.00
2019-03-13T08:41:09.939Z,9.00
2019-03-13T08:43:41.526Z,9.00
2019-03-13T08:46:27.238Z,9.00
2019-03-13T08:49:13.538Z,9.00
2019-03-13T08:51:47.290Z,9.00
2019-03-13T08:54:18.287Z,9.00
2019-03-13T08:56:59.786Z,9.00
2019-03-13T08:59:36.599Z,9.00
2019-03-13T09:02:14.083Z,9.00
2019-03-13T09:04:45.077Z,9.00
2019-03-13T09:07:34.120Z,9.00
2019-03-13T09:10:09.514Z,9.00
2019-03-13T09:12:43.595Z,8.90
2019-03-13T09:15:14.651Z,8.90
2019-03-13T09:17:55.299Z,8.90
2019-03-13T09:20:35.238Z,8.90
2019-03-13T09:23:08.715Z,8.90
2019-03-13T09:25:45.758Z,8.90
2019-03-13T09:28:23.045Z,8.90
2019-03-13T09:31:12.074Z,8.90
2019-03-13T09:33:49.141Z,8.80
2019-03-13T09:36:22.910Z,8.80
2019-03-13T09:38:56.756Z,8.80
2019-03-13T09:41:33.726Z,8.80
2019-03-13T09:44:22.736Z,8.80
2019-03-13T09:47:05.907Z,8.70
2019-03-13T09:49:36.889Z,8.70
2019-03-13T09:52:14.062Z,8.70
2019-03-13T09:55:04.412Z,8.70
2019-03-13T09:57:50.272Z,8.60
2019-03-13T10:00:34.307Z,8.60
2019-03-13T10:03:14.335Z,8.60
2019-03-13T10:05:48.092Z,8.60
2019-03-13T10:08:19.909Z,8.60
2019-03-13T10:10:50.897Z,8.60
2019-03-13T10:13:36.969Z,8.60
2019-03-13T10:16:24.107Z,8.60
2019-03-13T10:19:00.124Z,8.60
2019-03-13T10:21:43.651Z,8.60
2019-03-13T10:24:23.550Z,8.60
2019-03-13T10:27:09.908Z,8.60
2019-03-13T10:29:43.797Z,8.60
2019-03-13T10:32:17.760Z,8.60
2019-03-13T10:34:48.821Z,8.60
2019-03-13T10:37:36.640Z,8.70
2019-03-13T10:40:25.436Z,8.70
2019-03-13T10:43:02.356Z,8.70
2019-03-13T10:45:39.290Z,8.70
2019-03-13T10:48:10.610Z,8.70
2019-03-13T10:50:41.601Z,8.80
2019-03-13T10:53:15.558Z,8.80
2019-03-13T10:55:55.041Z,8.80
2019-03-13T10:58:41.681Z,8.90
2019-03-13T11:01:21.907Z,8.90
2019-03-13T11:04:09.075Z,8.90
2019-03-13T11:06:55.614Z,8.90
2019-03-13T11:09:29.367Z,8.90
2019-03-13T11:12:00.388Z,9.00
2019-03-13T11:14:31.853Z,9.00
2019-03-13T11:17:17.955Z,9.00
2019-03-13T11:20:05.356Z,9.10
2019-03-13T11:22:36.349Z,9.10
2019-03-13T11:25:22.475Z,9.10
2019-03-13T11:27:53.460Z,9.10
2019-03-13T11:30:36.739Z,9.20
2019-03-13T11:33:13.727Z,9.20
2019-03-13T11:36:01.132Z,9.20
2019-03-13T11:38:48.219Z,9.30
2019-03-13T11:41:37.399Z,9.30
2019-03-13T11:44:11.506Z,9.30
2019-03-13T11:46:45.648Z,9.30
2019-03-13T11:49:22.153Z,9.30
2019-03-13T11:52:02.704Z,9.30
2019-03-13T11:54:45.716Z,9.30
2019-03-13T11:57:19.410Z,9.30
2019-03-13T12:00:02.317Z,9.30
2019-03-13T12:02:43.080Z,9.20
2019-03-13T12:05:31.085Z,9.20
2019-03-13T12:08:04.889Z,9.20
2019-03-13T12:10:41.674Z,9.20
2019-03-13T12:13:24.668Z,9.10
2019-03-13T12:15:55.689Z,9.10
2019-03-13T12:18:26.923Z,9.10
2019-03-13T12:21:13.891Z,9.20
2019-03-13T12:23:47.533Z,9.10
2019-03-13T12:26:34.602Z,9.10
2019-03-13T12:29:08.199Z,9.10
2019-03-13T12:31:48.274Z,9.10
2019-03-13T12:34:35.477Z,9.10
2019-03-13T12:37:18.141Z,9.20
2019-03-13T12:39:58.282Z,9.20
2019-03-13T12:42:38.250Z,9.20
2019-03-13T12:45:25.609Z,9.20
2019-03-13T12:48:16.239Z,9.20
2019-03-13T12:50:38.870Z,9.20
2019-03-13T12:53:10.505Z,9.20
2019-03-13T12:55:47.305Z,9.30
2019-03-13T12:58:21.031Z,9.20
2019-03-13T13:01:10.324Z,9.30
2019-03-13T13:03:56.675Z,9.30
2019-03-13T13:06:45.883Z,9.20
2019-03-13T13:09:33.327Z,9.20
2019-03-13T13:12:14.086Z,9.20
2019-03-13T13:15:01.754Z,9.20
2019-03-13T13:17:41.960Z,9.20
2019-03-13T13:20:14.280Z,9.20
2019-03-13T13:22:43.629Z,9.30
2019-03-13T13:25:13.128Z,9.30
2019-03-13T13:27:42.472Z,9.40
2019-03-13T13:30:16.672Z,9.40
2019-03-13T13:32:46.393Z,9.40
2019-03-13T13:35:15.747Z,9.50
2019-03-13T13:37:45.197Z,9.50
2019-03-13T13:40:16.882Z,9.50
2019-03-13T13:42:46.239Z,9.50
2019-03-13T13:45:35.627Z,9.50
2019-03-13T13:48:05.714Z,9.50
2019-03-13T13:50:35.072Z,9.50
2019-03-13T13:53:04.448Z,9.60
2019-03-13T13:55:34.194Z,9.60
2019-03-13T13:58:03.794Z,9.60
2019-03-13T14:00:33.166Z,9.60
2019-03-13T14:03:02.506Z,9.60
2019-03-13T14:05:31.877Z,9.60
2019-03-13T14:08:01.247Z,9.60
2019-03-13T14:10:30.595Z,9.60
2019-03-13T14:12:59.952Z,9.50
2019-03-13T14:15:29.353Z,9.50
2019-03-13T14:18:00.225Z,9.50
2019-03-13T14:20:29.752Z,9.50
2019-03-13T14:22:59.174Z,9.60
2019-03-13T14:25:28.533Z,9.50
2019-03-13T14:27:57.885Z,9.50
2019-03-13T14:30:27.331Z,9.50
2019-03-13T14:32:58.206Z,9.50
2019-03-13T14:35:27.566Z,9.50
2019-03-13T14:37:57.314Z,9.50
2019-03-13T14:40:26.747Z,9.50
2019-03-13T14:42:56.440Z,9.50
2019-03-13T14:45:25.863Z,9.50
2019-03-13T14:47:55.222Z,9.50
2019-03-13T14:50:24.604Z,9.50
2019-03-13T14:52:53.969Z,9.50
2019-03-13T14:55:24.373Z,9.50
2019-03-13T14:57:54.982Z,9.50
2019-03-13T15:00:26.761Z,9.50
2019-03-13T15:02:56.120Z,9.60
2019-03-13T15:05:26.126Z,9.60
2019-03-13T15:07:55.498Z,9.60
2019-03-13T15:10:24.998Z,9.60
2019-03-13T15:12:54.300Z,9.70
2019-03-13T15:15:24.718Z,9.70
2019-03-13T15:17:54.070Z,9.70
2019-03-13T15:20:26.105Z,9.70
2019-03-13T15:22:56.127Z,9.70
2019-03-13T15:25:26.148Z,9.70
2019-03-13T15:27:55.500Z,9.70
2019-03-13T15:30:27.200Z,9.70
2019-03-13T15:32:56.595Z,9.70
2019-03-13T15:35:25.949Z,9.70
2019-03-13T15:37:55.324Z,9.70
2019-03-13T15:40:24.678Z,9.70
2019-03-13T15:42:54.025Z,9.70
2019-03-13T15:45:26.703Z,9.70
2019-03-13T15:47:56.078Z,9.70
2019-03-13T15:50:25.507Z,9.60
2019-03-13T15:52:54.884Z,9.60
2019-03-13T15:55:24.807Z,9.60
2019-03-13T15:57:54.190Z,9.60
2019-03-13T16:00:29.917Z,9.50
2019-03-13T16:02:59.309Z,9.40
2019-03-13T16:05:28.667Z,9.40
2019-03-13T16:07:58.040Z,9.30
2019-03-13T16:10:27.396Z,9.30
2019-03-13T16:12:58.390Z,9.30
2019-03-13T16:15:30.392Z,9.20
2019-03-13T16:17:59.743Z,9.20
2019-03-13T16:20:29.652Z,9.20
2019-03-13T16:23:01.237Z,9.20
2019-03-13T16:25:31.127Z,9.20
2019-03-13T16:28:00.617Z,9.20
2019-03-13T16:30:42.761Z,9.20
2019-03-13T16:33:12.120Z,9.20
2019-03-13T16:35:41.470Z,9.20
2019-03-13T16:38:10.890Z,9.20
2019-03-13T16:40:40.254Z,9.20
2019-03-13T16:43:09.606Z,9.20
2019-03-13T16:45:38.983Z,9.20
2019-03-13T16:48:08.421Z,9.20
2019-03-13T16:50:38.714Z,9.20
2019-03-13T16:53:08.160Z,9.20
2019-03-13T16:55:37.538Z,9.10
2019-03-13T16:58:06.892Z,9.10
2019-03-13T17:00:37.498Z,9.10
2019-03-13T17:03:07.302Z,9.00
2019-03-13T17:05:36.712Z,9.00
2019-03-13T17:08:06.191Z,9.00
2019-03-13T17:10:35.553Z,9.00
2019-03-13T17:13:05.692Z,8.90
2019-03-13T17:15:35.384Z,8.90
2019-03-13T17:18:04.734Z,8.90
2019-03-13T17:20:39.615Z,8.90
2019-03-13T17:23:08.985Z,8.80
2019-03-13T17:25:38.497Z,8.80
2019-03-13T17:28:07.941Z,8.80
2019-03-13T17:30:37.304Z,8.80
2019-03-13T17:33:06.726Z,8.80
2019-03-13T17:35:36.084Z,8.80
2019-03-13T17:38:05.646Z,8.80
2019-03-13T17:40:35.367Z,8.80
2019-03-13T17:43:04.785Z,8.70
2019-03-13T17:45:34.327Z,8.70
2019-03-13T17:48:03.916Z,8.70
2019-03-13T17:50:33.267Z,8.60
2019-03-13T17:53:02.747Z,8.60
2019-03-13T17:55:32.051Z,8.60
2019-03-13T17:58:01.394Z,8.60
2019-03-13T18:00:47.309Z,8.60
2019-03-13T18:03:16.830Z,8.60
2019-03-13T18:05:46.856Z,8.50
2019-03-13T18:08:16.258Z,8.50
2019-03-13T18:10:45.600Z,8.50
2019-03-13T18:13:15.089Z,8.50
2019-03-13T18:15:44.469Z,8.50
2019-03-13T18:18:13.850Z,8.50
2019-03-13T18:20:43.197Z,8.50
2019-03-13T18:23:12.620Z,8.50
2019-03-13T18:25:42.056Z,8.60
2019-03-13T18:28:12.080Z,8.60
2019-03-13T18:30:41.531Z,8.50
2019-03-13T18:33:10.881Z,8.50
2019-03-13T18:35:40.231Z,8.50
2019-03-13T18:38:09.608Z,8.50
2019-03-13T18:40:38.958Z,8.50
2019-03-13T18:43:08.979Z,8.50
2019-03-13T18:45:40.393Z,8.50
2019-03-13T18:48:09.745Z,8.50
2019-03-13T18:50:39.102Z,8.50
2019-03-13T18:53:08.713Z,8.50
2019-03-13T18:55:38.326Z,8.40
2019-03-13T18:58:07.747Z,8.40
2019-03-13T19:00:38.026Z,8.40
2019-03-13T19:03:10.950Z,8.40
2019-03-13T19:05:40.304Z,8.40
2019-03-13T19:08:10.156Z,8.40
2019-03-13T19:10:39.512Z,8.40
2019-03-13T19:13:09.105Z,8.40
2019-03-13T19:15:40.063Z,8.50
2019-03-13T19:18:09.771Z,8.50
2019-03-13T19:20:39.198Z,8.50
2019-03-13T19:23:08.615Z,8.50
2019-03-13T19:25:37.985Z,8.50
2019-03-13T19:28:07.337Z,8.50
2019-03-13T19:30:37.946Z,8.50
2019-03-13T19:33:07.691Z,8.50
2019-03-13T19:35:37.614Z,8.50
2019-03-13T19:38:10.465Z,8.50
2019-03-13T19:40:40.090Z,8.50
2019-03-13T19:43:09.504Z,8.50
2019-03-13T19:45:48.953Z,8.50
2019-03-13T19:48:18.299Z,8.50
2019-03-13T19:50:47.661Z,8.50
2019-03-13T19:53:17.068Z,8.60
2019-03-13T19:55:46.430Z,8.60
2019-03-13T19:58:15.785Z,8.60
2019-03-13T20:00:45.179Z,8.60
2019-03-13T20:03:17.534Z,8.60
2019-03-13T20:05:46.995Z,8.60
2019-03-13T20:08:17.868Z,8.60
2019-03-13T20:10:47.947Z,8.60
2019-03-13T20:13:17.566Z,8.60
2019-03-13T20:15:46.915Z,8.70
2019-03-13T20:18:16.334Z,8.70
2019-03-13T20:20:45.699Z,8.70
2019-03-13T20:23:21.076Z,8.70
2019-03-13T20:25:50.431Z,8.70
2019-03-13T20:28:19.874Z,8.70
2019-03-13T20:30:49.324Z,8.70
2019-03-13T20:33:18.810Z,8.70
2019-03-13T20:35:48.177Z,8.80
2019-03-13T20:38:17.626Z,8.80
2019-03-13T20:40:46.979Z,8.80
2019-03-13T20:43:16.330Z,8.80
2019-03-13T20:45:46.738Z,8.80
2019-03-13T20:48:16.113Z,8.90
2019-03-13T20:50:45.472Z,8.90
2019-03-13T20:53:16.496Z,8.90
2019-03-13T20:55:45.867Z,8.90
2019-03-13T20:58:15.222Z,8.90
2019-03-13T21:00:44.709Z,8.90
2019-03-13T21:03:14.075Z,8.90
2019-03-13T21:05:43.428Z,8.90
2019-03-13T21:08:12.866Z,8.90
2019-03-13T21:10:42.218Z,8.90
2019-03-13T21:13:13.181Z,8.90
2019-03-13T21:15:43.833Z,9.00
2019-03-13T21:18:13.391Z,8.90
2019-03-13T21:20:42.742Z,9.00
2019-03-13T21:23:12.776Z,9.00
2019-03-13T21:25:42.127Z,9.00
2019-03-13T21:28:11.487Z,9.00
2019-03-13T21:30:41.603Z,9.00
2019-03-13T21:33:10.947Z,9.00
2019-03-13T21:35:40.391Z,9.00
2019-03-13T21:38:12.830Z,9.00
2019-03-13T21:40:40.883Z,9.00
2019-03-13T21:43:10.238Z,9.00
2019-03-13T21:45:41.455Z,9.00
2019-03-13T21:48:10.714Z,9.00
2019-03-13T21:50:40.097Z,9.00
2019-03-13T21:53:10.658Z,9.00
2019-03-13T21:55:40.013Z,9.00
2019-03-13T21:58:09.370Z,9.00
2019-03-13T22:00:38.773Z,9.00
2019-03-13T22:03:08.123Z,9.00
2019-03-13T22:05:37.501Z,9.00
2019-03-13T22:08:06.874Z,9.00
2019-03-13T22:10:36.221Z,9.00
2019-03-13T22:13:05.745Z,9.00
2019-03-13T22:15:36.244Z,9.00
2019-03-13T22:18:05.742Z,9.00
2019-03-13T22:20:35.097Z,9.00
2019-03-13T22:23:04.480Z,9.00
2019-03-13T22:25:33.848Z,9.00
2019-03-13T22:28:03.204Z,9.10
2019-03-13T22:30:32.667Z,9.10
2019-03-13T22:33:02.018Z,9.10
2019-03-13T22:35:31.369Z,9.10
2019-03-13T22:38:01.152Z,9.10
2019-03-13T22:40:30.507Z,9.10
2019-03-13T22:42:59.851Z,9.10
2019-03-13T22:45:29.288Z,9.10
2019-03-13T22:47:59.207Z,9.10
2019-03-13T22:50:29.431Z,9.10
2019-03-13T22:52:58.813Z,9.10
2019-03-13T22:55:28.185Z,9.10
2019-03-13T22:57:57.559Z,9.10
2019-03-13T23:00:41.944Z,9.10
2019-03-13T23:03:11.622Z,9.10
2019-03-13T23:05:40.982Z,9.10
2019-03-13T23:08:10.367Z,9.10
2019-03-13T23:10:39.796Z,9.10
2019-03-13T23:13:09.423Z,9.10
2019-03-13T23:15:38.814Z,9.10
2019-03-13T23:18:08.632Z,9.10
2019-03-13T23:20:37.988Z,9.00
2019-03-13T23:23:07.752Z,9.10
2019-03-13T23:25:37.180Z,9.10
2019-03-13T23:28:06.535Z,9.10
2019-03-13T23:30:35.927Z,9.10
2019-03-13T23:33:05.329Z,9.00
2019-03-13T23:35:34.705Z,9.00
2019-03-13T23:38:04.244Z,9.00
2019-03-13T23:40:33.694Z,9.00
2019-03-13T23:43:03.089Z,9.00
2019-03-13T23:45:32.444Z,9.00
2019-03-13T23:48:01.809Z,9.00
2019-03-13T23:50:31.166Z,9.00
2019-03-13T23:53:00.544Z,9.00
2019-03-13T23:55:29.910Z,9.00
2019-03-13T23:57:59.267Z,9.00
